Timeline UpdatesTrip UpdatesNews PostsPvt PostsTravel TipsAdmin PostsConv PostsFollowed PostsChat RequestsBlog PostsPNR Posts

Disclaimer
Search
 
 
Wed Jul 23, 2014 21:21:37 ISTHomeTrainsΣChainsAtlasPNRForumGalleryNewsFAQTripsMembersLoginFeedback
Latest...
.
Sat May 31, 2014 (11:15PM)
⇐ Return Journey: Train# 15483

14084⇒15484/Sikkim Mahananda Express

Jan 14 2014 (8:06PM)
Change Departure Station:
Change Arrival Station:
Post a Train Travel TipPost a Train Travel Tip **new
Post a Comment/Question/Picture/VideoPost a Comment/Question/Picture/Video
Pantry/Catering
✓ Pantry Car Avbl
✓ Catering Avbl
RSA - Rake Sharing
Rake/Coach Composition
LOCO-SLR-GS-GS-GS-S1-S2-S3-S4-S5-S6-S7-S8-S9-S10-S11-PC-B1-AB-GS-GS-GS-SLR
Loco
DLI - PNBE: Mughalsarai shed WAP-4 or Ghaziabad shed WAP-4/7 PNBE...
Read more...
- APDJ: WDP4/4B of Siliguri shed. **Spotted with MGS WAP-4 22739 at MGS on 30/03/2013**
News    PNR    Forum    Time-Table    Availability    Fare Chart    Map    Arr/Dep History    Trips    Gallery    ΣChains    X/O    Timeline    
Travel Time: 6h 16m    11 halts    Distance: 316 km    Avg Speed: 50 km/hr
Type: Mail/Express
Zone: NFR/Northeast Frontier
Departs @ 06:40
Platform# 9
SMTWTFS
Old Delhi Junction/DLI 
Arrives @ 12:56
Platform# 3
SMTWTFS
Bharthana/BNT 

11 halts. 45 intermediate Stations between Old Delhi Junction and Bharthana

Show ALL intermediate Stations  Show Old Time-Table

#CodeStation NameX/OArrivesAvgDepartsAvgHaltPFDay#KmSpeedElevZoneAddress
1DLI»Old Delhi Junction (16)»  -06:40-910.024219mNRNear Chandni Chowk Metro Station, Delhi NCT
2DSAShahdara Junction (4)  06:56-06:58-2m216.329212mNRCircular Rd, Delhi NCT
3GZBGhaziabad Junction (6)X  07:26-07:28-2m2119.980217mNRGhaziabad, Uttar Pradesh
4CHLChola (3)  08:04-08:06-2m--168.058204mNCRTahsil Bulandshahar, Uttar Pradesh
5KRJKhurja Junction (4)X  08:21-08:23-2m2182.671199mNCRBulandshahr, Uttar Pradesh
6ALJNAligarh Junction (4)X  09:00-09:05-5m11126.182192mNCRAligarh, Uttar Pradesh
7HRSHathras Junction (3)X  09:27-09:32-5m11156.286183mNCRMahamaya Nagar(05722-242803), Uttar Pradesh
8JLSJalesar Road (1)X  09:46-09:48-2m11176.323172mNCRMDR 106W, Uttar Pradesh
9TDLTundla Junction (5)  11:00-11:08-8m31204.245167mNCRDistt.Firozabad, Uttar Pradesh
10FZDFirozabad (4)  11:30-11:32-2m21220.857164mNCRFirozabad, Uttar Pradesh
11SKBShikohabad Junction (4)X  11:53-11:55-2m21240.677166mNCRDistrict Firozabad, Uttar Pradesh
12ETWEtawah (5)  12:38-12:40-2m31296.075154mNCRDistt. Etawah, Uttar Pradesh
13BNT•Bharthana (3)•  12:56-12:58-2m31315.969147mNCRBharthana, Uttar Pradesh
14ULDAchalda (3)  13:15-13:17-2m31335.463147mNCRDist. Auraiya(05688-1072), Uttar Pradesh
15PHDPhaphund (4)X  13:33-13:35-2m31352.270146mNCRdist. Auraiya, Uttar Pradesh
16JJKJhinjhak (3)  13:52-13:54-2m31372.067140mNCRAuraiya, Uttar Pradesh
17RURARura (4)  14:11-14:13-2m31391.145137mNCRJhinjhak, Uttar Pradesh
18CNBKanpur Central (10)X  15:12-15:20-8m51435.474128mNCRKANPUR-208 001, Uttar Pradesh
19FTPFatehpur (3)  16:23-16:25-2m21513.078120mNCRFatehpur, Uttar Pradesh
20ALDAllahabad Junction (10)X  17:55-18:05-10m41629.739100mNCRAllahabad 211003, Uttar Pradesh
21NYNNaini Junction (4)  18:16-18:18-2m11636.88698mNCRAllahabad, Uttar Pradesh
22BDLVindhyachal (3)X  19:10-19:12-2m21711.62188mNCRMirzapur, Uttar Pradesh
23MZPMirzapur (3)X  19:33-19:35-2m21718.94588mNCRMirzapur, Uttar Pradesh
24MGSMughal Sarai Junction (8)X  21:00-21:15-15m11782.16683mECRMughalsarai 232101, Uttar Pradesh
25BXRBuxar (3)  22:41-22:43-2m--1876.09167mECRBuxar, Bihar
26ARAAra Junction (3)X  23:28-23:30-2m--1944.58863mECRarrah( 06182-233411), Bihar
27DNRDanapur (5)  23:57-23:59-2m--1984.11658mECRKhagaul, Bihar
28PNBEPatna Junction (10)00:35-01:00-25m22993.57757mECRPatna 800001, Bihar
29BKPBakhtiyarpur Junction (5)X  01:35-01:37-2m--21038.65951mECRPatna, Bihar
30MKAMokama Junction (3)X  02:22-02:24-2m--21082.71448mECRPatna, Bihar
31BJUBarauni Junction (9)  03:55-04:00-5m121103.43749mECRBegusarai, Bihar
32BGSBegu Sarai (3)X  04:22-04:24-2m--21116.836 ECRBegusarai, Bihar
33LKNLakhminia  04:54-04:56-2m--21134.64845mECRBegusarai, Bihar
34SKJSahibpur Kamal Junction (2)  05:08-05:10-2m--21144.32941mECRShahpur Kamal, Bihar
35KGGKhagaria Junction (3)XO  05:36-05:38-2m--21156.76643mECRKhagaria, Bihar
36MNEMansi Junction (3)O  05:46-05:48-2m--21165.54243mECRMansi, Bihar
37MSKMahes Khunt  06:03-06:05-2m--21175.93237mECRMaheshkhunt, Bihar
38PSRPasraha  06:28-06:30-2m--21188.32541mECRPasraha, Bihar
39NNRNarayanpurO  06:58-07:00-2m--21199.91639mECRNarayanpur, Bihar
40THBThana Bihpur JunctionX  07:28-07:30-2m--21207.52839mECRThana Bihpur, Bihar
41NNANaugachiaX  08:04-08:06-2m--21223.43737mECRBhagalpur, Bihar
42KUEKurselaX  08:36-08:38-2m--21241.96031mECRNH 31, Bihar
43CRRKaragola Road  08:55-08:57-2m--21258.94636mECRLachhmipur, Bihar
44SMOSemapurX09:11-09:13-2m--21269.74135mECRKatihar, Bihar
45KIRKatihar Junction (7)  09:30-09:50-20m621281.25335mNFRKatihar 854105, Bihar
46LAVLabha  10:16-10:18-2m--21304.05529mNFRNational Highway 81, Bihar
47AZRAzamnagar Road (2)X  10:41-10:43-2m--21325.16234mNFRAzamnagar, Bihar
48BOEBarsoi Junction (3)  10:56-10:58-2m--21338.47637mNFRdist- katihar, Bihar
49DLKDalkhola (3)  11:21-11:23-2m--21367.56844mNFRDalkola, West Bengal
50KNEKishanGanj (3)  11:48-11:50-2m121396.07352mNFRKishanganj, Bihar
51AUBAluabari Road (2)X  12:15-12:17-2m221426.6470mNFRDist - uttar Dinajpur, West Bengal
52NJPNew Jalpaiguri Junction (8)X  13:30-13:45-15m121483.322114mNFRCity-Siliguri . Dist-Jalpaiguri, West Bengal
53SGUJSiliguri Junction (5)  14:05-14:10-5m421490.651120mNFRDist-Darjeeling Siliguri-734001, West Bengal
54NMZNew Mal Junction (3)X  15:06-15:11-5m--21538.468161mNFRDist - Jalpaiguri, West Bengal
55BNVBinnaguri (3)  15:50-15:52-2m--21582.750132mNFRDist : jalpaiguri, West Bengal
56DLODalgaon (3)  16:03-16:05-2m--21591.943120mNFRDist : Alipurduar, West Bengal
57HSAHasimara (3)X  16:40-16:42-2m--21617.027123mNFRDist - Alipurduar, West Bengal
58APDJAlipur Duar Junction (3)  18:00----21651.8-53mNFRDist - Alipurduar, West Bengal
Scroll to Top
Scroll to Bottom